Victor, Iowa
Current Conditions -  °F | °C
As of 1:15 PM on Sunday 21 Dec 2014 (Local Time) from KGGI Reporting Station
Haze Haze  
Wind Chill: 31°   Ceiling: 800
Heat Index: 39°   Visibility: 4mi
Dew Point: 37°   Wind: 14mph
Humidity: 93%   Direction: 170°S
Pressure: 29.89"   Gusts: NA
Location:  41.73°N, 92.3°W
Report Text: KGGI 211915Z AUTO 17012KT 4SM BR BKN008 OVC013 04/03 A2989 RMK AO2 T00370027
Loading
Personal Weather Stations






























Interactive Weather Map New forecast layout! Learn more

10-Day Weather Forecast

Advertisements
Track Severe Weather on mobile